sensor_id;sensor_type;location;lat;lon;timestamp;pressure;altitude;pressure_sealevel;temperature;humidity
19827;BME280;10074;52.018;4.726;2023-02-28T00:00:32;46217.25;;;-144.79;100.00
19827;BME280;10074;52.018;4.726;2023-02-28T00:05:33;46217.25;;;-144.79;100.00
19827;BME280;10074;52.018;4.726;2023-02-28T00:10:33;46229.28;;;-144.79;100.00
19827;BME280;10074;52.018;4.726;2023-02-28T00:15:34;46239.31;;;-144.79;100.00
19827;BME280;10074;52.018;4.726;2023-02-28T00:20:35;46221.25;;;-144.79;100.00
19827;BME280;10074;52.018;4.726;2023-02-28T00:25:35;46211.22;;;-144.79;100.00
19827;BME280;10074;52.018;4.726;2023-02-28T00:30:35;46219.25;;;-144.79;100.00
19827;BME280;10074;52.018;4.726;2023-02-28T00:35:35;46225.28;;;-144.79;100.00
19827;BME280;10074;52.018;4.726;2023-02-28T00:40:36;46217.25;;;-144.79;100.00
19827;BME280;10074;52.018;4.726;2023-02-28T00:45:36;46225.28;;;-144.79;100.00
19827;BME280;10074;52.018;4.726;2023-02-28T00:50:37;46213.25;;;-144.79;100.00
19827;BME280;10074;52.018;4.726;2023-02-28T00:55:37;46219.25;;;-144.79;100.00
19827;BME280;10074;52.018;4.726;2023-02-28T01:00:37;46211.22;;;-144.79;100.00
19827;BME280;10074;52.018;4.726;2023-02-28T01:05:37;46205.22;;;-144.79;100.00
19827;BME280;10074;52.018;4.726;2023-02-28T01:10:38;46215.25;;;-144.79;100.00
19827;BME280;10074;52.018;4.726;2023-02-28T01:15:43;46217.25;;;-144.79;100.00
19827;BME280;10074;52.018;4.726;2023-02-28T01:20:45;46229.28;;;-144.79;100.00
19827;BME280;10074;52.018;4.726;2023-02-28T01:25:46;46203.22;;;-144.79;100.00
19827;BME280;10074;52.018;4.726;2023-02-28T01:30:50;46223.25;;;-144.79;100.00
19827;BME280;10074;52.018;4.726;2023-02-28T01:36:11;46215.25;;;-144.79;100.00
19827;BME280;10074;52.018;4.726;2023-02-28T01:41:19;46199.19;;;-144.79;100.00
19827;BME280;10074;52.018;4.726;2023-02-28T01:46:20;46213.25;;;-144.79;100.00
19827;BME280;10074;52.018;4.726;2023-02-28T01:51:33;46219.25;;;-144.79;100.00
19827;BME280;10074;52.018;4.726;2023-02-28T01:56:36;46219.25;;;-144.79;100.00
19827;BME280;10074;52.018;4.726;2023-02-28T02:01:36;46219.25;;;-144.79;100.00
19827;BME280;10074;52.018;4.726;2023-02-28T02:06:42;46217.25;;;-144.79;100.00
19827;BME280;10074;52.018;4.726;2023-02-28T02:11:44;46211.22;;;-144.79;100.00
19827;BME280;10074;52.018;4.726;2023-02-28T02:17:03;46215.25;;;-144.79;100.00
19827;BME280;10074;52.018;4.726;2023-02-28T02:38:48;46221.25;;;-144.79;100.00
19827;BME280;10074;52.018;4.726;2023-02-28T02:43:53;46217.25;;;-144.79;100.00
19827;BME280;10074;52.018;4.726;2023-02-28T02:48:59;46223.25;;;-144.79;100.00
19827;BME280;10074;52.018;4.726;2023-02-28T02:54:15;46211.22;;;-144.79;100.00
19827;BME280;10074;52.018;4.726;2023-02-28T02:59:20;46223.25;;;-144.79;100.00
19827;BME280;10074;52.018;4.726;2023-02-28T03:04:23;46219.25;;;-144.79;100.00
19827;BME280;10074;52.018;4.726;2023-02-28T03:09:25;46215.25;;;-144.79;100.00
19827;BME280;10074;52.018;4.726;2023-02-28T03:14:46;46221.25;;;-144.79;100.00
19827;BME280;10074;52.018;4.726;2023-02-28T03:25:41;46207.22;;;-144.79;100.00
19827;BME280;10074;52.018;4.726;2023-02-28T03:35:58;46215.25;;;-144.79;100.00
19827;BME280;10074;52.018;4.726;2023-02-28T03:41:28;46207.22;;;-144.79;100.00
19827;BME280;10074;52.018;4.726;2023-02-28T03:46:33;46231.28;;;-144.79;100.00
19827;BME280;10074;52.018;4.726;2023-02-28T03:51:38;46203.22;;;-144.79;100.00
19827;BME280;10074;52.018;4.726;2023-02-28T03:56:43;46223.25;;;-144.79;100.00
19827;BME280;10074;52.018;4.726;2023-02-28T04:01:48;46207.22;;;-144.79;100.00
19827;BME280;10074;52.018;4.726;2023-02-28T04:06:51;46223.25;;;-144.79;100.00
19827;BME280;10074;52.018;4.726;2023-02-28T04:11:52;46215.25;;;-144.79;100.00
19827;BME280;10074;52.018;4.726;2023-02-28T04:16:53;46213.25;;;-144.79;100.00
19827;BME280;10074;52.018;4.726;2023-02-28T04:21:54;46219.25;;;-144.79;100.00
19827;BME280;10074;52.018;4.726;2023-02-28T04:26:56;46211.22;;;-144.79;100.00
19827;BME280;10074;52.018;4.726;2023-02-28T04:31:57;46223.25;;;-144.79;100.00
19827;BME280;10074;52.018;4.726;2023-02-28T04:36:59;46215.25;;;-144.79;100.00
19827;BME280;10074;52.018;4.726;2023-02-28T04:42:00;46207.22;;;-144.79;100.00
19827;BME280;10074;52.018;4.726;2023-02-28T04:47:00;46221.25;;;-144.79;100.00
19827;BME280;10074;52.018;4.726;2023-02-28T04:52:01;46219.25;;;-144.79;100.00
19827;BME280;10074;52.018;4.726;2023-02-28T04:57:02;46215.25;;;-144.79;100.00
19827;BME280;10074;52.018;4.726;2023-02-28T05:02:02;46221.25;;;-144.79;100.00
19827;BME280;10074;52.018;4.726;2023-02-28T05:07:06;46211.22;;;-144.79;100.00
19827;BME280;10074;52.018;4.726;2023-02-28T05:12:08;46221.25;;;-144.79;100.00
19827;BME280;10074;52.018;4.726;2023-02-28T05:17:09;46219.25;;;-144.79;100.00
19827;BME280;10074;52.018;4.726;2023-02-28T05:22:15;46217.25;;;-144.79;100.00
19827;BME280;10074;52.018;4.726;2023-02-28T05:27:16;46219.25;;;-144.79;100.00
19827;BME280;10074;52.018;4.726;2023-02-28T05:32:17;46207.22;;;-144.79;100.00
19827;BME280;10074;52.018;4.726;2023-02-28T05:37:17;46203.22;;;-144.79;100.00
19827;BME280;10074;52.018;4.726;2023-02-28T05:42:18;46215.25;;;-144.79;100.00
19827;BME280;10074;52.018;4.726;2023-02-28T05:47:18;46211.22;;;-144.79;100.00
19827;BME280;10074;52.018;4.726;2023-02-28T05:52:19;46209.22;;;-144.79;100.00
19827;BME280;10074;52.018;4.726;2023-02-28T05:57:19;46215.25;;;-144.79;100.00
19827;BME280;10074;52.018;4.726;2023-02-28T06:02:20;46227.28;;;-144.79;100.00
19827;BME280;10074;52.018;4.726;2023-02-28T06:07:20;46213.25;;;-144.79;100.00
19827;BME280;10074;52.018;4.726;2023-02-28T06:12:22;46221.25;;;-144.79;100.00
19827;BME280;10074;52.018;4.726;2023-02-28T06:17:22;46205.22;;;-144.79;100.00
19827;BME280;10074;52.018;4.726;2023-02-28T06:22:23;46215.25;;;-144.79;100.00
19827;BME280;10074;52.018;4.726;2023-02-28T06:27:23;46207.22;;;-144.79;100.00
19827;BME280;10074;52.018;4.726;2023-02-28T06:32:24;46211.22;;;-144.79;100.00
19827;BME280;10074;52.018;4.726;2023-02-28T06:37:24;46203.22;;;-144.79;100.00
19827;BME280;10074;52.018;4.726;2023-02-28T06:42:28;46217.25;;;-144.79;100.00
19827;BME280;10074;52.018;4.726;2023-02-28T06:47:30;46231.28;;;-144.79;100.00
19827;BME280;10074;52.018;4.726;2023-02-28T06:52:31;46215.25;;;-144.79;100.00
19827;BME280;10074;52.018;4.726;2023-02-28T06:57:32;46217.25;;;-144.79;100.00
19827;BME280;10074;52.018;4.726;2023-02-28T07:02:34;46215.25;;;-144.79;100.00
19827;BME280;10074;52.018;4.726;2023-02-28T07:07:35;46197.19;;;-144.79;100.00
19827;BME280;10074;52.018;4.726;2023-02-28T07:12:38;46207.22;;;-144.79;100.00
19827;BME280;10074;52.018;4.726;2023-02-28T07:17:38;46207.22;;;-144.79;100.00
19827;BME280;10074;52.018;4.726;2023-02-28T07:22:39;46203.22;;;-144.79;100.00
19827;BME280;10074;52.018;4.726;2023-02-28T07:27:39;46195.19;;;-144.79;100.00
19827;BME280;10074;52.018;4.726;2023-02-28T07:32:40;46197.19;;;-144.79;100.00
19827;BME280;10074;52.018;4.726;2023-02-28T07:37:41;46191.19;;;-144.79;100.00
19827;BME280;10074;52.018;4.726;2023-02-28T07:42:42;46191.19;;;-144.79;100.00
19827;BME280;10074;52.018;4.726;2023-02-28T07:47:43;46201.22;;;-144.79;100.00
19827;BME280;10074;52.018;4.726;2023-02-28T07:52:43;46181.16;;;-144.79;100.00
19827;BME280;10074;52.018;4.726;2023-02-28T07:57:44;46193.19;;;-144.79;100.00
19827;BME280;10074;52.018;4.726;2023-02-28T08:02:44;46181.16;;;-144.79;100.00
19827;BME280;10074;52.018;4.726;2023-02-28T08:07:45;46183.16;;;-144.79;100.00
19827;BME280;10074;52.018;4.726;2023-02-28T08:12:45;46199.19;;;-144.79;100.00
19827;BME280;10074;52.018;4.726;2023-02-28T08:17:45;46159.09;;;-144.79;100.00
19827;BME280;10074;52.018;4.726;2023-02-28T08:22:46;46189.19;;;-144.79;100.00
19827;BME280;10074;52.018;4.726;2023-02-28T08:27:46;46183.16;;;-144.79;100.00
19827;BME280;10074;52.018;4.726;2023-02-28T08:32:46;46165.13;;;-144.79;100.00
19827;BME280;10074;52.018;4.726;2023-02-28T08:37:50;46181.16;;;-144.79;100.00
19827;BME280;10074;52.018;4.726;2023-02-28T08:42:50;46171.13;;;-144.79;100.00
19827;BME280;10074;52.018;4.726;2023-02-28T08:47:51;46175.16;;;-144.79;100.00
19827;BME280;10074;52.018;4.726;2023-02-28T08:52:52;46175.16;;;-144.79;100.00
19827;BME280;10074;52.018;4.726;2023-02-28T08:57:52;46185.16;;;-144.79;100.00
19827;BME280;10074;52.018;4.726;2023-02-28T09:02:53;46171.13;;;-144.79;100.00
19827;BME280;10074;52.018;4.726;2023-02-28T09:07:54;46171.13;;;-144.79;100.00
19827;BME280;10074;52.018;4.726;2023-02-28T09:12:55;46187.19;;;-144.79;100.00
19827;BME280;10074;52.018;4.726;2023-02-28T09:17:55;46191.19;;;-144.79;100.00
19827;BME280;10074;52.018;4.726;2023-02-28T09:22:55;46167.13;;;-144.79;100.00
19827;BME280;10074;52.018;4.726;2023-02-28T09:27:55;46171.13;;;-144.79;100.00
19827;BME280;10074;52.018;4.726;2023-02-28T09:32:56;46187.19;;;-144.79;100.00
19827;BME280;10074;52.018;4.726;2023-02-28T09:37:56;46187.19;;;-144.79;100.00
19827;BME280;10074;52.018;4.726;2023-02-28T09:42:59;46181.16;;;-144.79;100.00
19827;BME280;10074;52.018;4.726;2023-02-28T09:48:04;46187.19;;;-144.79;100.00
19827;BME280;10074;52.018;4.726;2023-02-28T09:53:33;46215.25;;;-144.79;100.00
19827;BME280;10074;52.018;4.726;2023-02-28T10:03:55;46191.19;;;-144.79;100.00
19827;BME280;10074;52.018;4.726;2023-02-28T10:14:14;46199.19;;;-144.79;100.00
19827;BME280;10074;52.018;4.726;2023-02-28T10:24:39;46215.25;;;-144.79;100.00
19827;BME280;10074;52.018;4.726;2023-02-28T10:29:43;46207.22;;;-144.79;100.00
19827;BME280;10074;52.018;4.726;2023-02-28T10:34:46;46191.19;;;-144.79;100.00
19827;BME280;10074;52.018;4.726;2023-02-28T10:39:50;46171.13;;;-144.79;100.00
19827;BME280;10074;52.018;4.726;2023-02-28T10:45:16;46718.53;;;-144.79;80.40
19827;BME280;10074;52.018;4.726;2023-02-28T11:01:33;46748.63;;;-144.79;73.63
19827;BME280;10074;52.018;4.726;2023-02-28T11:06:34;46732.59;;;-144.79;79.59
19827;BME280;10074;52.018;4.726;2023-02-28T11:11:45;46788.72;;;-144.79;86.85
19827;BME280;10074;52.018;4.726;2023-02-28T11:16:48;46447.84;;;-144.79;100.00
19827;BME280;10074;52.018;4.726;2023-02-28T11:21:57;46195.19;;;-144.79;100.00
19827;BME280;10074;52.018;4.726;2023-02-28T11:26:59;46171.13;;;-144.79;100.00
19827;BME280;10074;52.018;4.726;2023-02-28T11:37:18;46175.16;;;-144.79;100.00
19827;BME280;10074;52.018;4.726;2023-02-28T11:42:23;46153.09;;;-144.79;100.00
19827;BME280;10074;52.018;4.726;2023-02-28T11:47:32;46157.09;;;-144.79;100.00
19827;BME280;10074;52.018;4.726;2023-02-28T11:52:54;46167.13;;;-144.79;100.00
19827;BME280;10074;52.018;4.726;2023-02-28T12:29:53;46189.19;;;-144.79;100.00
19827;BME280;10074;52.018;4.726;2023-02-28T12:35:23;46177.16;;;-144.79;100.00
19827;BME280;10074;52.018;4.726;2023-02-28T12:40:23;46185.16;;;-144.79;100.00
19827;BME280;10074;52.018;4.726;2023-02-28T12:45:42;46187.19;;;-144.79;100.00
19827;BME280;10074;52.018;4.726;2023-02-28T12:50:44;46183.16;;;-144.79;100.00
19827;BME280;10074;52.018;4.726;2023-02-28T12:55:50;46161.09;;;-144.79;100.00
19827;BME280;10074;52.018;4.726;2023-02-28T13:01:39;46175.16;;;-144.79;100.00
19827;BME280;10074;52.018;4.726;2023-02-28T13:12:00;46159.09;;;-144.79;100.00
19827;BME280;10074;52.018;4.726;2023-02-28T13:27:34;46167.13;;;-144.79;100.00
19827;BME280;10074;52.018;4.726;2023-02-28T13:32:35;46139.06;;;-144.79;100.00
19827;BME280;10074;52.018;4.726;2023-02-28T13:37:42;46147.06;;;-144.79;100.00
19827;BME280;10074;52.018;4.726;2023-02-28T13:47:51;46179.16;;;-144.79;100.00
19827;BME280;10074;52.018;4.726;2023-02-28T14:09:06;46191.19;;;-144.79;100.00
19827;BME280;10074;52.018;4.726;2023-02-28T14:19:37;46195.19;;;-144.79;100.00
19827;BME280;10074;52.018;4.726;2023-02-28T14:40:30;46195.19;;;-144.79;100.00
19827;BME280;10074;52.018;4.726;2023-02-28T14:45:35;46169.13;;;-144.79;100.00
19827;BME280;10074;52.018;4.726;2023-02-28T14:50:37;46181.16;;;-144.79;100.00
19827;BME280;10074;52.018;4.726;2023-02-28T14:55:44;46199.19;;;-144.79;100.00
19827;BME280;10074;52.018;4.726;2023-02-28T15:00:49;46187.19;;;-144.79;100.00
19827;BME280;10074;52.018;4.726;2023-02-28T15:06:00;46193.19;;;-144.79;100.00
19827;BME280;10074;52.018;4.726;2023-02-28T15:11:05;46203.22;;;-144.79;100.00
19827;BME280;10074;52.018;4.726;2023-02-28T15:16:16;46211.22;;;-144.79;100.00
19827;BME280;10074;52.018;4.726;2023-02-28T15:21:26;46193.19;;;-144.79;100.00
19827;BME280;10074;52.018;4.726;2023-02-28T15:26:34;46201.22;;;-144.79;100.00
19827;BME280;10074;52.018;4.726;2023-02-28T15:31:44;46213.25;;;-144.79;100.00
19827;BME280;10074;52.018;4.726;2023-02-28T15:36:45;46201.22;;;-144.79;100.00
19827;BME280;10074;52.018;4.726;2023-02-28T15:41:45;46213.25;;;-144.79;100.00
19827;BME280;10074;52.018;4.726;2023-02-28T15:47:04;46215.25;;;-144.79;100.00
19827;BME280;10074;52.018;4.726;2023-02-28T15:52:04;46223.25;;;-144.79;100.00
19827;BME280;10074;52.018;4.726;2023-02-28T15:57:06;46227.28;;;-144.79;100.00
19827;BME280;10074;52.018;4.726;2023-02-28T16:02:21;46207.22;;;-144.79;100.00
19827;BME280;10074;52.018;4.726;2023-02-28T16:07:22;46209.22;;;-144.79;100.00
19827;BME280;10074;52.018;4.726;2023-02-28T16:12:35;46201.22;;;-144.79;100.00
19827;BME280;10074;52.018;4.726;2023-02-28T16:17:38;46211.22;;;-144.79;100.00
19827;BME280;10074;52.018;4.726;2023-02-28T16:22:38;46205.22;;;-144.79;100.00
19827;BME280;10074;52.018;4.726;2023-02-28T16:27:39;46213.25;;;-144.79;100.00
19827;BME280;10074;52.018;4.726;2023-02-28T16:32:40;46199.19;;;-144.79;100.00
19827;BME280;10074;52.018;4.726;2023-02-28T16:37:41;46181.16;;;-144.79;100.00
19827;BME280;10074;52.018;4.726;2023-02-28T16:42:41;46187.19;;;-144.79;100.00
19827;BME280;10074;52.018;4.726;2023-02-28T16:47:42;46203.22;;;-144.79;100.00
19827;BME280;10074;52.018;4.726;2023-02-28T16:52:43;46199.19;;;-144.79;100.00
19827;BME280;10074;52.018;4.726;2023-02-28T16:57:44;46169.13;;;-144.79;100.00
19827;BME280;10074;52.018;4.726;2023-02-28T17:02:46;46191.19;;;-144.79;100.00
19827;BME280;10074;52.018;4.726;2023-02-28T17:07:47;46187.19;;;-144.79;100.00
19827;BME280;10074;52.018;4.726;2023-02-28T17:12:48;46175.16;;;-144.79;100.00
19827;BME280;10074;52.018;4.726;2023-02-28T17:17:49;46187.19;;;-144.79;100.00
19827;BME280;10074;52.018;4.726;2023-02-28T17:22:50;46195.19;;;-144.79;100.00
19827;BME280;10074;52.018;4.726;2023-02-28T17:27:51;46193.19;;;-144.79;100.00
19827;BME280;10074;52.018;4.726;2023-02-28T17:32:51;46187.19;;;-144.79;100.00
19827;BME280;10074;52.018;4.726;2023-02-28T17:37:51;46193.19;;;-144.79;100.00
19827;BME280;10074;52.018;4.726;2023-02-28T17:42:52;46189.19;;;-144.79;100.00
19827;BME280;10074;52.018;4.726;2023-02-28T17:47:52;46199.19;;;-144.79;100.00
19827;BME280;10074;52.018;4.726;2023-02-28T17:52:52;46203.22;;;-144.79;100.00
19827;BME280;10074;52.018;4.726;2023-02-28T17:57:53;46203.22;;;-144.79;100.00
19827;BME280;10074;52.018;4.726;2023-02-28T18:02:53;46211.22;;;-144.79;100.00
19827;BME280;10074;52.018;4.726;2023-02-28T18:07:54;46201.22;;;-144.79;100.00
19827;BME280;10074;52.018;4.726;2023-02-28T18:12:54;46199.19;;;-144.79;100.00
19827;BME280;10074;52.018;4.726;2023-02-28T18:17:55;46201.22;;;-144.79;100.00
19827;BME280;10074;52.018;4.726;2023-02-28T18:22:55;46195.19;;;-144.79;100.00
19827;BME280;10074;52.018;4.726;2023-02-28T18:27:55;46199.19;;;-144.79;100.00
19827;BME280;10074;52.018;4.726;2023-02-28T18:33:00;46201.22;;;-144.79;100.00
19827;BME280;10074;52.018;4.726;2023-02-28T18:38:02;46203.22;;;-144.79;100.00
19827;BME280;10074;52.018;4.726;2023-02-28T18:43:03;46211.22;;;-144.79;100.00
19827;BME280;10074;52.018;4.726;2023-02-28T18:48:05;46221.25;;;-144.79;100.00
19827;BME280;10074;52.018;4.726;2023-02-28T18:53:05;46211.22;;;-144.79;100.00
19827;BME280;10074;52.018;4.726;2023-02-28T18:58:06;46213.25;;;-144.79;100.00
19827;BME280;10074;52.018;4.726;2023-02-28T19:03:06;46207.22;;;-144.79;100.00
19827;BME280;10074;52.018;4.726;2023-02-28T19:08:06;46219.25;;;-144.79;100.00
19827;BME280;10074;52.018;4.726;2023-02-28T19:13:08;46211.22;;;-144.79;100.00
19827;BME280;10074;52.018;4.726;2023-02-28T19:18:08;46211.22;;;-144.79;100.00
19827;BME280;10074;52.018;4.726;2023-02-28T19:23:08;46199.19;;;-144.79;100.00
19827;BME280;10074;52.018;4.726;2023-02-28T19:28:10;46209.22;;;-144.79;100.00
19827;BME280;10074;52.018;4.726;2023-02-28T19:33:11;46191.19;;;-144.79;100.00
19827;BME280;10074;52.018;4.726;2023-02-28T19:38:11;46205.22;;;-144.79;100.00
19827;BME280;10074;52.018;4.726;2023-02-28T19:43:11;46181.16;;;-144.79;100.00
19827;BME280;10074;52.018;4.726;2023-02-28T19:48:11;46201.22;;;-144.79;100.00
19827;BME280;10074;52.018;4.726;2023-02-28T19:53:12;46203.22;;;-144.79;100.00
19827;BME280;10074;52.018;4.726;2023-02-28T19:58:12;46191.19;;;-144.79;100.00
19827;BME280;10074;52.018;4.726;2023-02-28T20:03:13;46199.19;;;-144.79;100.00
19827;BME280;10074;52.018;4.726;2023-02-28T20:08:13;46191.19;;;-144.79;100.00
19827;BME280;10074;52.018;4.726;2023-02-28T20:13:14;46203.22;;;-144.79;100.00
19827;BME280;10074;52.018;4.726;2023-02-28T20:18:14;46183.16;;;-144.79;100.00
19827;BME280;10074;52.018;4.726;2023-02-28T20:23:14;46199.19;;;-144.79;100.00
19827;BME280;10074;52.018;4.726;2023-02-28T20:28:15;46195.19;;;-144.79;100.00
19827;BME280;10074;52.018;4.726;2023-02-28T20:33:16;46203.22;;;-144.79;100.00
19827;BME280;10074;52.018;4.726;2023-02-28T20:38:16;46207.22;;;-144.79;100.00
19827;BME280;10074;52.018;4.726;2023-02-28T20:43:17;46191.19;;;-144.79;100.00
19827;BME280;10074;52.018;4.726;2023-02-28T20:48:17;46207.22;;;-144.79;100.00
19827;BME280;10074;52.018;4.726;2023-02-28T20:53:18;46207.22;;;-144.79;100.00
19827;BME280;10074;52.018;4.726;2023-02-28T20:58:18;46195.19;;;-144.79;100.00
19827;BME280;10074;52.018;4.726;2023-02-28T21:03:19;46195.19;;;-144.79;100.00
19827;BME280;10074;52.018;4.726;2023-02-28T21:08:19;46209.22;;;-144.79;100.00
19827;BME280;10074;52.018;4.726;2023-02-28T21:13:19;46195.19;;;-144.79;100.00
19827;BME280;10074;52.018;4.726;2023-02-28T21:18:20;46197.19;;;-144.79;100.00
19827;BME280;10074;52.018;4.726;2023-02-28T21:23:20;46213.25;;;-144.79;100.00
19827;BME280;10074;52.018;4.726;2023-02-28T21:28:20;46193.19;;;-144.79;100.00
19827;BME280;10074;52.018;4.726;2023-02-28T21:33:20;46219.25;;;-144.79;100.00
19827;BME280;10074;52.018;4.726;2023-02-28T21:38:21;46219.25;;;-144.79;100.00
19827;BME280;10074;52.018;4.726;2023-02-28T21:43:21;46221.25;;;-144.79;100.00
19827;BME280;10074;52.018;4.726;2023-02-28T21:48:21;46225.28;;;-144.79;100.00
19827;BME280;10074;52.018;4.726;2023-02-28T21:53:22;46239.31;;;-144.79;100.00
19827;BME280;10074;52.018;4.726;2023-02-28T21:58:22;46233.28;;;-144.79;100.00
19827;BME280;10074;52.018;4.726;2023-02-28T22:03:22;46227.28;;;-144.79;100.00
19827;BME280;10074;52.018;4.726;2023-02-28T22:08:23;46237.31;;;-144.79;100.00
19827;BME280;10074;52.018;4.726;2023-02-28T22:13:23;46239.31;;;-144.79;100.00
19827;BME280;10074;52.018;4.726;2023-02-28T22:18:23;46245.31;;;-144.79;100.00
19827;BME280;10074;52.018;4.726;2023-02-28T22:23:24;46239.31;;;-144.79;100.00
19827;BME280;10074;52.018;4.726;2023-02-28T22:28:24;46243.31;;;-144.79;100.00
19827;BME280;10074;52.018;4.726;2023-02-28T22:33:26;46241.31;;;-144.79;100.00
19827;BME280;10074;52.018;4.726;2023-02-28T22:38:27;46237.31;;;-144.79;100.00
19827;BME280;10074;52.018;4.726;2023-02-28T22:43:27;46239.31;;;-144.79;100.00
19827;BME280;10074;52.018;4.726;2023-02-28T22:48:27;46245.31;;;-144.79;100.00
19827;BME280;10074;52.018;4.726;2023-02-28T22:53:33;46243.31;;;-144.79;100.00
19827;BME280;10074;52.018;4.726;2023-02-28T22:58:34;46245.31;;;-144.79;100.00
19827;BME280;10074;52.018;4.726;2023-02-28T23:03:35;46245.31;;;-144.79;100.00
19827;BME280;10074;52.018;4.726;2023-02-28T23:08:36;46243.31;;;-144.79;100.00
19827;BME280;10074;52.018;4.726;2023-02-28T23:13:36;46239.31;;;-144.79;100.00
19827;BME280;10074;52.018;4.726;2023-02-28T23:18:36;46241.31;;;-144.79;100.00
19827;BME280;10074;52.018;4.726;2023-02-28T23:23:37;46233.28;;;-144.79;100.00
19827;BME280;10074;52.018;4.726;2023-02-28T23:28:37;46235.28;;;-144.79;100.00
19827;BME280;10074;52.018;4.726;2023-02-28T23:33:40;46239.31;;;-144.79;100.00
19827;BME280;10074;52.018;4.726;2023-02-28T23:38:42;46237.31;;;-144.79;100.00
19827;BME280;10074;52.018;4.726;2023-02-28T23:43:45;46239.31;;;-144.79;100.00
19827;BME280;10074;52.018;4.726;2023-02-28T23:48:45;46243.31;;;-144.79;100.00
19827;BME280;10074;52.018;4.726;2023-02-28T23:53:48;46233.28;;;-144.79;100.00
19827;BME280;10074;52.018;4.726;2023-02-28T23:58:50;46237.31;;;-144.79;100.00
